createdAt,value
2022-10-28T00:01:04.937Z,101282.03
2022-10-28T00:03:33.480Z,101289.91
2022-10-28T00:06:05.266Z,101280.28
2022-10-28T00:08:33.264Z,101275.81
2022-10-28T00:11:08.736Z,101264.25
2022-10-28T00:13:36.675Z,101257.97
2022-10-28T00:16:08.203Z,101256.16
2022-10-28T00:18:36.052Z,101257.75
2022-10-28T00:21:05.016Z,101264.66
2022-10-28T00:23:32.895Z,101258.47
2022-10-28T00:26:14.015Z,101259.28
2022-10-28T00:28:42.981Z,101266.09
2022-10-28T00:31:13.861Z,101254.75
2022-10-28T00:33:41.645Z,101256.38
2022-10-28T00:36:14.880Z,101246.69
2022-10-28T00:38:44.373Z,101239.63
2022-10-28T00:41:14.596Z,101242.16
2022-10-28T00:43:45.411Z,101250.03
2022-10-28T00:46:20.980Z,101247.22
2022-10-28T00:48:52.110Z,101241.94
2022-10-28T00:51:22.510Z,101247.22
2022-10-28T00:53:52.988Z,101245.56
2022-10-28T00:56:23.268Z,101244.63
2022-10-28T00:58:51.564Z,101255.28
2022-10-28T01:01:20.686Z,101268.41
2022-10-28T01:03:48.741Z,101268.41
2022-10-28T01:06:17.436Z,101264.97
2022-10-28T01:08:45.116Z,101270.25
2022-10-28T01:11:27.426Z,101268.59
2022-10-28T01:14:14.675Z,101267.66
2022-10-28T01:16:56.552Z,101270.59
2022-10-28T01:19:59.760Z,101267.78
2022-10-28T01:25:39.018Z,101256.84
2022-10-28T01:28:36.694Z,101245.28
2022-10-28T01:31:23.367Z,101242.84
2022-10-28T01:33:55.190Z,101243.75
2022-10-28T01:36:34.599Z,101248.16
2022-10-28T01:39:14.163Z,101244.72
2022-10-28T01:41:52.896Z,101242.06
2022-10-28T01:44:28.265Z,101237.69
2022-10-28T01:47:02.960Z,101224.50
2022-10-28T01:49:39.180Z,101222.72
2022-10-28T01:52:12.076Z,101223.50
2022-10-28T01:54:42.981Z,101226.56
2022-10-28T01:57:13.204Z,101225.84
2022-10-28T01:59:42.422Z,101222.53
2022-10-28T02:02:11.529Z,101212.94
2022-10-28T02:04:39.255Z,101207.66
2022-10-28T02:07:07.431Z,101214.56
2022-10-28T02:09:48.956Z,101211.81
2022-10-28T02:12:29.548Z,101219.97
2022-10-28T02:15:24.242Z,101212.38
2022-10-28T02:17:57.920Z,101216.91
2022-10-28T02:20:34.795Z,101195.38
2022-10-28T02:23:13.184Z,101198.94
2022-10-28T02:25:45.889Z,101199.56
2022-10-28T02:28:20.065Z,101208.28
2022-10-28T02:30:52.439Z,101216.53
2022-10-28T02:33:26.562Z,101229.25
2022-10-28T02:35:58.717Z,101237.38
2022-10-28T02:38:30.092Z,101233.78
2022-10-28T02:41:00.929Z,101235.53
2022-10-28T02:43:31.472Z,101246.97
2022-10-28T02:46:03.327Z,101238.88
2022-10-28T02:48:39.489Z,101228.88
2022-10-28T02:51:10.948Z,101229.28
2022-10-28T02:53:46.921Z,101223.88
2022-10-28T02:56:16.898Z,101232.22
2022-10-28T02:58:46.272Z,101227.50
2022-10-28T03:01:14.199Z,101226.56
2022-10-28T03:03:43.508Z,101221.09
2022-10-28T03:06:11.314Z,101229.75
2022-10-28T03:08:39.004Z,101210.28
2022-10-28T03:11:06.937Z,101215.34
2022-10-28T03:13:34.640Z,101202.94
2022-10-28T03:16:02.311Z,101201.09
2022-10-28T03:18:30.070Z,101191.50
2022-10-28T03:20:59.300Z,101193.22
2022-10-28T03:23:27.038Z,101194.03
2022-10-28T03:25:54.749Z,101193.06
2022-10-28T03:28:22.479Z,101190.34
2022-10-28T03:30:50.487Z,101186.06
2022-10-28T03:33:18.175Z,101185.06
2022-10-28T03:35:46.029Z,101178.06
2022-10-28T03:38:15.059Z,101183.41
2022-10-28T03:40:42.783Z,101186.19
2022-10-28T03:43:10.585Z,101179.25
2022-10-28T03:45:38.317Z,101174.94
2022-10-28T03:48:06.374Z,101175.09
2022-10-28T03:50:34.218Z,101177.13
2022-10-28T03:53:02.065Z,101168.44
2022-10-28T03:55:31.149Z,101164.19
2022-10-28T03:58:01.490Z,101167.69
2022-10-28T04:00:29.306Z,101171.53
2022-10-28T04:02:57.250Z,101169.03
2022-10-28T04:05:25.148Z,101178.88
2022-10-28T04:07:54.039Z,101173.72
2022-10-28T04:10:21.942Z,101174.91
2022-10-28T04:12:51.143Z,101175.06
2022-10-28T04:15:18.957Z,101173.28
2022-10-28T04:17:46.609Z,101171.53
2022-10-28T04:20:14.320Z,101166.34
2022-10-28T04:22:41.996Z,101161.84
2022-10-28T04:25:10.106Z,101163.69
2022-10-28T04:27:38.191Z,101166.25
2022-10-28T04:30:08.716Z,101157.50
2022-10-28T04:32:36.441Z,101158.56
2022-10-28T04:35:04.325Z,101164.69
2022-10-28T04:37:32.161Z,101165.75
2022-10-28T04:39:59.915Z,101160.63
2022-10-28T04:42:28.177Z,101159.91
2022-10-28T04:44:55.889Z,101171.25
2022-10-28T04:47:25.453Z,101169.53
2022-10-28T04:49:53.137Z,101186.41
2022-10-28T04:52:20.873Z,101184.97
2022-10-28T04:54:48.573Z,101183.41
2022-10-28T04:57:16.781Z,101184.59
2022-10-28T04:59:44.547Z,101190.16
2022-10-28T05:02:12.301Z,101186.06
2022-10-28T05:04:41.422Z,101189.22
2022-10-28T05:07:09.329Z,101189.16
2022-10-28T05:09:37.063Z,101186.63
2022-10-28T05:12:05.104Z,101191.22
2022-10-28T05:14:32.771Z,101190.41
2022-10-28T05:17:00.515Z,101193.09
2022-10-28T05:19:28.289Z,101201.50
2022-10-28T05:21:57.316Z,101196.94
2022-10-28T05:24:24.989Z,101187.09
2022-10-28T05:26:52.768Z,101183.31
2022-10-28T05:29:20.706Z,101182.34
2022-10-28T05:31:48.417Z,101179.50
2022-10-28T05:34:16.276Z,101172.50
2022-10-28T05:36:44.129Z,101172.59
2022-10-28T05:39:13.812Z,101177.84
2022-10-28T05:41:41.663Z,101168.28
2022-10-28T05:44:09.426Z,101177.06
2022-10-28T05:46:37.206Z,101175.41
2022-10-28T05:49:05.065Z,101177.28
2022-10-28T05:51:32.753Z,101172.88
2022-10-28T05:54:00.404Z,101164.97
2022-10-28T05:56:29.541Z,101164.84
2022-10-28T05:58:57.308Z,101170.00
2022-10-28T06:01:25.001Z,101167.38
2022-10-28T06:03:52.838Z,101172.59
2022-10-28T06:06:21.044Z,101185.66
2022-10-28T06:08:48.809Z,101185.53
2022-10-28T06:11:15.444Z,101189.00
2022-10-28T06:13:44.525Z,101185.44
2022-10-28T06:16:12.240Z,101182.03
2022-10-28T06:18:40.129Z,101183.84
2022-10-28T06:21:07.899Z,101186.44
2022-10-28T06:23:35.678Z,101195.13
2022-10-28T06:26:04.744Z,101199.59
2022-10-28T06:28:32.591Z,101202.19
2022-10-28T06:31:05.927Z,101197.66
2022-10-28T06:33:34.404Z,101197.56
2022-10-28T06:36:02.477Z,101198.38
2022-10-28T06:38:30.555Z,101205.28
2022-10-28T06:40:58.711Z,101215.72
2022-10-28T06:43:26.446Z,101214.75
2022-10-28T06:45:55.900Z,101207.63
2022-10-28T06:48:26.498Z,101210.94
2022-10-28T06:50:56.328Z,101211.66
2022-10-28T06:53:24.196Z,101211.50
2022-10-28T06:55:55.971Z,101212.38
2022-10-28T06:58:24.017Z,101217.34
2022-10-28T07:00:52.162Z,101205.81
2022-10-28T07:03:20.087Z,101208.31
2022-10-28T07:05:51.404Z,101213.28
2022-10-28T07:08:19.195Z,101206.06
2022-10-28T07:10:54.747Z,101209.47
2022-10-28T07:13:22.492Z,101212.00
2022-10-28T07:15:53.147Z,101204.78
2022-10-28T07:18:21.866Z,101217.00
2022-10-28T07:20:51.202Z,101216.75
2022-10-28T07:23:19.029Z,101225.38
2022-10-28T07:28:27.026Z,101227.00
2022-10-28T07:30:54.766Z,101226.69
2022-10-28T07:33:22.743Z,101224.78
2022-10-28T07:35:51.840Z,101230.00
2022-10-28T07:38:19.587Z,101223.72
2022-10-28T07:40:47.282Z,101226.44
2022-10-28T07:43:15.058Z,101229.88
2022-10-28T07:45:42.984Z,101241.25
2022-10-28T07:48:10.880Z,101239.25
2022-10-28T07:50:38.694Z,101250.66
2022-10-28T07:53:07.870Z,101250.75
2022-10-28T07:55:35.563Z,101254.06
2022-10-28T07:58:03.450Z,101252.22
2022-10-28T08:00:31.305Z,101251.34
2022-10-28T08:02:58.972Z,101246.13
2022-10-28T08:05:26.705Z,101251.91
2022-10-28T08:07:54.659Z,101246.63
2022-10-28T08:10:23.976Z,101251.91
2022-10-28T08:12:51.680Z,101245.03
2022-10-28T08:15:21.144Z,101250.63
2022-10-28T08:17:52.692Z,101246.13
2022-10-28T08:20:21.071Z,101249.53
2022-10-28T08:22:49.090Z,101253.50
2022-10-28T08:25:16.978Z,101238.38
2022-10-28T08:27:46.052Z,101237.22
2022-10-28T08:30:13.946Z,101220.16
2022-10-28T08:32:41.625Z,101232.03
2022-10-28T08:35:10.206Z,101224.72
2022-10-28T08:37:37.888Z,101217.66
2022-10-28T08:40:06.855Z,101207.94
2022-10-28T08:42:42.378Z,101208.84
2022-10-28T08:45:23.543Z,101211.13
2022-10-28T08:48:13.133Z,101210.88
2022-10-28T08:50:50.174Z,101213.22
2022-10-28T08:53:22.245Z,101209.09
2022-10-28T08:55:53.061Z,101217.38
2022-10-28T08:58:26.294Z,101219.50
2022-10-28T09:00:57.673Z,101214.41
2022-10-28T09:03:26.932Z,101212.00
2022-10-28T09:06:01.766Z,101218.56
2022-10-28T09:08:31.657Z,101213.41
2022-10-28T09:11:17.165Z,101214.69
2022-10-28T09:14:00.795Z,101210.66
2022-10-28T09:16:44.841Z,101223.16
2022-10-28T09:19:20.317Z,101212.72
2022-10-28T09:21:52.902Z,101208.63
2022-10-28T09:24:24.256Z,101208.97
2022-10-28T09:26:59.235Z,101217.53
2022-10-28T09:29:44.355Z,101215.19
2022-10-28T09:32:24.133Z,101218.41
2022-10-28T09:34:57.422Z,101220.91
2022-10-28T09:37:29.243Z,101216.50
2022-10-28T09:40:01.755Z,101218.41
2022-10-28T09:42:33.738Z,101223.72
2022-10-28T09:45:04.614Z,101229.81
2022-10-28T09:47:38.316Z,101222.69
2022-10-28T09:50:14.995Z,101224.56
2022-10-28T09:52:56.095Z,101217.34
2022-10-28T09:55:24.704Z,101223.28
2022-10-28T09:57:52.725Z,101223.72
2022-10-28T10:00:21.222Z,101216.59
2022-10-28T10:02:57.342Z,101228.16
2022-10-28T10:05:25.954Z,101230.22
2022-10-28T10:07:57.673Z,101221.59
2022-10-28T10:10:28.823Z,101229.03
2022-10-28T10:13:01.113Z,101238.09
2022-10-28T10:15:33.744Z,101228.53
2022-10-28T10:18:06.068Z,101229.13
2022-10-28T10:20:48.262Z,101227.09
2022-10-28T10:23:24.312Z,101229.69
2022-10-28T10:25:56.882Z,101229.53
2022-10-28T10:28:27.222Z,101238.41
2022-10-28T10:30:56.977Z,101231.72
2022-10-28T10:33:29.388Z,101227.28
2022-10-28T10:36:01.690Z,101226.97
2022-10-28T10:38:30.625Z,101224.34
2022-10-28T10:40:58.597Z,101219.28
2022-10-28T10:43:32.258Z,101217.19
2022-10-28T10:46:06.202Z,101210.72
2022-10-28T10:48:37.018Z,101204.28
2022-10-28T10:51:10.265Z,101204.50
2022-10-28T10:53:40.698Z,101203.97
2022-10-28T10:56:10.793Z,101207.31
2022-10-28T10:58:41.467Z,101196.84
2022-10-28T11:01:17.732Z,101204.31
2022-10-28T11:03:54.436Z,101206.03
2022-10-28T11:06:27.239Z,101203.25
2022-10-28T11:09:00.598Z,101210.66
2022-10-28T11:11:36.584Z,101203.50
2022-10-28T11:14:08.313Z,101190.84
2022-10-28T11:16:48.651Z,101184.84
2022-10-28T11:19:22.148Z,101183.06
2022-10-28T11:22:03.567Z,101180.53
2022-10-28T11:25:01.012Z,101181.63
2022-10-28T11:27:41.679Z,101175.72
2022-10-28T11:30:15.454Z,101163.53
2022-10-28T11:33:02.194Z,101160.28
2022-10-28T11:35:57.147Z,101160.94
2022-10-28T11:38:45.540Z,101158.44
2022-10-28T11:41:30.394Z,101154.09
2022-10-28T11:44:04.738Z,101153.84
2022-10-28T11:46:46.910Z,101145.78
2022-10-28T11:49:35.623Z,101147.19
2022-10-28T11:52:18.192Z,101144.94
2022-10-28T11:54:59.788Z,101149.38
2022-10-28T11:57:40.620Z,101145.28
2022-10-28T12:00:26.261Z,101141.69
2022-10-28T12:03:06.752Z,101136.13
2022-10-28T12:05:42.706Z,101134.72
2022-10-28T12:08:26.741Z,101124.41
2022-10-28T12:11:11.505Z,101131.94
2022-10-28T12:13:45.641Z,101126.06
2022-10-28T12:16:19.420Z,101119.41
2022-10-28T12:18:53.201Z,101120.44
2022-10-28T12:21:28.804Z,101122.91
2022-10-28T12:23:59.960Z,101119.63
2022-10-28T12:26:35.314Z,101118.53
2022-10-28T12:29:06.299Z,101119.72
2022-10-28T12:31:43.101Z,101119.41
2022-10-28T12:34:17.578Z,101118.81
2022-10-28T12:36:51.319Z,101116.81
2022-10-28T12:39:26.519Z,101109.00
2022-10-28T12:42:01.084Z,101105.47
2022-10-28T12:44:29.485Z,101101.25
2022-10-28T12:47:08.390Z,101105.66
2022-10-28T12:49:45.326Z,101103.44
2022-10-28T12:52:23.204Z,101103.00
2022-10-28T12:54:59.383Z,101101.56
2022-10-28T12:57:30.604Z,101102.31
2022-10-28T13:00:03.501Z,101101.84
2022-10-28T13:02:36.344Z,101096.34
2022-10-28T13:05:06.090Z,101101.56
2022-10-28T13:07:56.220Z,101105.22
2022-10-28T13:10:35.424Z,101105.47
2022-10-28T13:13:27.726Z,101108.41
2022-10-28T13:16:06.593Z,101109.03
2022-10-28T13:18:50.402Z,101106.84
2022-10-28T13:21:29.744Z,101116.00
2022-10-28T13:24:05.454Z,101100.78
2022-10-28T13:26:36.751Z,101111.72
2022-10-28T13:29:07.873Z,101114.63
2022-10-28T13:31:41.399Z,101117.28
2022-10-28T13:34:10.284Z,101110.88
2022-10-28T13:36:42.881Z,101114.06
2022-10-28T13:39:24.424Z,101112.56
2022-10-28T13:42:26.000Z,101105.81
2022-10-28T13:44:56.437Z,101115.44
2022-10-28T13:47:27.427Z,101107.75
2022-10-28T13:50:37.095Z,101116.00
2022-10-28T13:53:42.548Z,101118.47
2022-10-28T13:56:31.368Z,101113.94
2022-10-28T13:59:02.395Z,101115.13
2022-10-28T14:02:01.275Z,101120.25
2022-10-28T14:04:40.319Z,101117.06
2022-10-28T14:07:21.544Z,101118.75
2022-10-28T14:09:53.684Z,101128.69
2022-10-28T14:12:26.941Z,101127.56
2022-10-28T14:15:00.646Z,101131.06
2022-10-28T14:17:36.467Z,101134.16
2022-10-28T14:20:06.814Z,101131.53
2022-10-28T14:22:35.942Z,101133.63
2022-10-28T14:25:04.748Z,101131.75
2022-10-28T14:27:42.308Z,101132.25
2022-10-28T14:30:19.692Z,101127.03
2022-10-28T14:33:26.178Z,101130.84
2022-10-28T14:36:09.655Z,101136.84
2022-10-28T14:38:59.127Z,101147.78
2022-10-28T14:41:39.517Z,101154.03
2022-10-28T14:44:23.931Z,101160.38
2022-10-28T14:47:07.738Z,101164.63
2022-10-28T14:49:39.266Z,101173.19
2022-10-28T14:52:13.626Z,101168.03
2022-10-28T14:54:48.871Z,101170.41
2022-10-28T14:57:22.100Z,101180.53
2022-10-28T14:59:51.811Z,101177.16
2022-10-28T15:02:22.969Z,101189.28
2022-10-28T15:05:03.797Z,101199.56
2022-10-28T15:07:37.948Z,101204.06
2022-10-28T15:10:15.659Z,101199.97
2022-10-28T15:12:45.460Z,101209.97
2022-10-28T15:15:21.084Z,101215.88
2022-10-28T15:17:49.365Z,101219.41
2022-10-28T15:20:23.341Z,101209.19
2022-10-28T15:22:53.549Z,101209.66
2022-10-28T15:25:22.889Z,101213.75
2022-10-28T15:27:53.009Z,101214.53
2022-10-28T15:30:23.623Z,101213.94
2022-10-28T15:32:52.022Z,101222.81
2022-10-28T15:35:40.630Z,101231.56
2022-10-28T15:38:38.046Z,101239.34
2022-10-28T15:41:42.349Z,101247.88
2022-10-28T15:44:27.085Z,101256.22
2022-10-28T15:46:55.163Z,101256.41
2022-10-28T15:49:37.465Z,101259.53
2022-10-28T15:52:34.007Z,101260.22
2022-10-28T15:55:35.552Z,101263.03
2022-10-28T15:58:43.175Z,101267.13
2022-10-28T16:01:28.152Z,101268.34
2022-10-28T16:03:56.052Z,101264.75
2022-10-28T16:06:28.111Z,101266.44
2022-10-28T16:09:02.391Z,101270.63
2022-10-28T16:11:32.649Z,101270.97
2022-10-28T16:14:04.572Z,101282.06
2022-10-28T16:16:33.624Z,101274.34
2022-10-28T16:19:09.378Z,101285.84
2022-10-28T16:21:38.821Z,101286.72
2022-10-28T16:24:07.075Z,101278.91
2022-10-28T16:26:36.104Z,101282.28
2022-10-28T16:29:03.764Z,101290.00
2022-10-28T16:31:32.064Z,101284.75
2022-10-28T16:34:00.157Z,101291.88
2022-10-28T16:36:28.308Z,101290.41
2022-10-28T16:38:56.133Z,101287.16
2022-10-28T16:41:25.293Z,101282.38
2022-10-28T16:43:55.733Z,101292.31
2022-10-28T16:46:23.625Z,101282.47
2022-10-28T16:48:51.560Z,101288.22
2022-10-28T16:51:19.515Z,101290.97
2022-10-28T16:53:49.518Z,101289.31
2022-10-28T16:56:18.184Z,101293.47
2022-10-28T16:58:46.719Z,101300.09
2022-10-28T17:01:18.904Z,101298.63
2022-10-28T17:03:46.691Z,101311.56
2022-10-28T17:06:14.540Z,101314.13
2022-10-28T17:09:01.999Z,101311.56
2022-10-28T17:14:02.640Z,101315.66
2022-10-28T17:16:31.748Z,101308.22
2022-10-28T17:18:59.450Z,101312.50
2022-10-28T17:21:27.186Z,101305.19
2022-10-28T17:23:54.914Z,101289.25
2022-10-28T17:26:22.640Z,101299.88
2022-10-28T17:28:52.784Z,101300.75
2022-10-28T17:31:24.774Z,101300.75
2022-10-28T17:33:55.823Z,101297.16
2022-10-28T17:36:24.139Z,101303.69
2022-10-28T17:38:51.797Z,101299.25
2022-10-28T17:41:19.857Z,101305.06
2022-10-28T17:43:47.577Z,101306.97
2022-10-28T17:46:15.223Z,101313.16
2022-10-28T17:48:42.916Z,101318.69
2022-10-28T17:51:12.367Z,101319.66
2022-10-28T17:53:40.053Z,101314.34
2022-10-28T17:56:08.813Z,101318.88
2022-10-28T17:58:36.804Z,101333.63
2022-10-28T18:01:06.775Z,101325.19
2022-10-28T18:03:38.284Z,101327.97
2022-10-28T18:06:08.759Z,101339.44
2022-10-28T18:08:39.214Z,101330.97
2022-10-28T18:11:08.547Z,101330.44
2022-10-28T18:13:38.611Z,101336.00
2022-10-28T18:16:07.318Z,101336.34
2022-10-28T18:18:40.976Z,101340.31
2022-10-28T18:21:11.887Z,101342.25
2022-10-28T18:23:41.846Z,101343.63
2022-10-28T18:26:12.660Z,101347.16
2022-10-28T18:28:41.326Z,101355.19
2022-10-28T18:31:12.500Z,101346.50
2022-10-28T18:33:40.682Z,101348.13
2022-10-28T18:36:11.619Z,101344.63
2022-10-28T18:38:39.345Z,101343.47
2022-10-28T18:41:12.354Z,101355.19
2022-10-28T18:43:40.478Z,101348.66
2022-10-28T18:46:08.807Z,101352.94
2022-10-28T18:48:36.686Z,101359.00
2022-10-28T18:51:07.345Z,101361.56
2022-10-28T18:53:37.442Z,101360.16
2022-10-28T18:56:06.113Z,101345.38
2022-10-28T18:58:35.446Z,101362.91
2022-10-28T19:01:08.751Z,101360.97
2022-10-28T19:03:36.794Z,101363.72
2022-10-28T19:06:06.482Z,101369.81
2022-10-28T19:08:34.890Z,101376.84
2022-10-28T19:11:03.493Z,101382.94
2022-10-28T19:13:35.500Z,101379.41
2022-10-28T19:16:03.686Z,101376.88
2022-10-28T19:18:35.219Z,101372.38
2022-10-28T19:21:04.334Z,101388.50
2022-10-28T19:23:32.720Z,101388.47
2022-10-28T19:26:01.176Z,101384.16
2022-10-28T19:28:29.564Z,101393.19
2022-10-28T19:31:02.817Z,101388.81
2022-10-28T19:33:32.051Z,101387.09
2022-10-28T19:36:05.161Z,101385.44
2022-10-28T19:38:38.048Z,101384.66
2022-10-28T19:41:07.766Z,101384.91
2022-10-28T19:43:36.326Z,101386.81
2022-10-28T19:46:07.348Z,101403.66
2022-10-28T19:48:35.134Z,101397.84
2022-10-28T19:51:03.684Z,101395.66
2022-10-28T19:53:31.390Z,101395.00
2022-10-28T19:56:00.816Z,101398.63
2022-10-28T19:58:29.596Z,101401.81
2022-10-28T20:01:01.745Z,101412.56
2022-10-28T20:03:34.412Z,101407.28
2022-10-28T20:06:05.973Z,101418.44
2022-10-28T20:08:38.204Z,101427.03
2022-10-28T20:11:07.698Z,101436.94
2022-10-28T20:13:36.463Z,101443.88
2022-10-28T20:16:06.547Z,101451.69
2022-10-28T20:18:35.723Z,101460.63
2022-10-28T20:21:05.040Z,101458.00
2022-10-28T20:23:33.256Z,101455.47
2022-10-28T20:26:01.016Z,101457.22
2022-10-28T20:28:28.984Z,101469.47
2022-10-28T20:31:01.580Z,101470.59
2022-10-28T20:33:30.563Z,101475.31
2022-10-28T20:36:00.128Z,101476.34
2022-10-28T20:38:28.870Z,101469.47
2022-10-28T20:40:58.595Z,101473.91
2022-10-28T20:43:28.335Z,101471.22
2022-10-28T20:45:58.576Z,101472.03
2022-10-28T20:48:27.967Z,101469.78
2022-10-28T20:50:57.248Z,101473.59
2022-10-28T20:53:28.012Z,101479.88
2022-10-28T20:55:57.144Z,101485.16
2022-10-28T20:58:26.313Z,101480.56
2022-10-28T21:00:54.490Z,101497.31
2022-10-28T21:03:22.923Z,101492.03
2022-10-28T21:05:50.670Z,101495.50
2022-10-28T21:08:18.398Z,101493.72
2022-10-28T21:10:47.588Z,101497.41
2022-10-28T21:13:15.279Z,101491.47
2022-10-28T21:15:45.569Z,101493.94
2022-10-28T21:18:13.373Z,101494.03
2022-10-28T21:20:41.439Z,101488.84
2022-10-28T21:23:09.228Z,101492.41
2022-10-28T21:25:37.153Z,101492.19
2022-10-28T21:28:07.132Z,101500.00
2022-10-28T21:30:34.912Z,101491.22
2022-10-28T21:33:03.760Z,101493.94
2022-10-28T21:35:31.806Z,101492.31
2022-10-28T21:37:59.527Z,101491.41
2022-10-28T21:40:27.343Z,101492.19
2022-10-28T21:42:55.069Z,101485.13
2022-10-28T21:45:24.296Z,101491.69
2022-10-28T21:47:55.817Z,101499.69
2022-10-28T21:50:24.111Z,101491.78
2022-10-28T21:52:51.938Z,101495.44
2022-10-28T21:55:41.093Z,101494.50
2022-10-28T21:58:07.474Z,101494.47
2022-10-28T22:00:36.590Z,101495.75
2022-10-28T22:03:04.485Z,101490.44
2022-10-28T22:05:32.843Z,101488.31
2022-10-28T22:08:03.121Z,101487.31
2022-10-28T22:10:32.904Z,101489.75
2022-10-28T22:13:00.669Z,101499.72
2022-10-28T22:15:28.400Z,101493.56
2022-10-28T22:17:57.700Z,101492.78
2022-10-28T22:22:58.450Z,101499.97
2022-10-28T22:25:26.304Z,101500.00
2022-10-28T22:27:54.076Z,101494.72
2022-10-28T22:30:21.859Z,101502.00
2022-10-28T22:32:49.849Z,101503.84
2022-10-28T22:35:19.061Z,101505.53
2022-10-28T22:37:47.128Z,101503.78
2022-10-28T22:40:15.059Z,101509.03
2022-10-28T22:42:42.783Z,101505.69
2022-10-28T22:45:10.866Z,101507.56
2022-10-28T22:47:38.575Z,101499.72
2022-10-28T22:50:07.050Z,101504.97
2022-10-28T22:52:36.167Z,101503.31
2022-10-28T22:55:04.004Z,101496.31
2022-10-28T22:57:31.715Z,101500.78
2022-10-28T22:59:59.634Z,101505.41
2022-10-28T23:02:27.400Z,101500.22
2022-10-28T23:04:55.392Z,101489.84
2022-10-28T23:07:23.093Z,101493.34
2022-10-28T23:09:52.138Z,101502.94
2022-10-28T23:12:19.897Z,101505.59
2022-10-28T23:14:47.639Z,101501.66
2022-10-28T23:17:15.343Z,101493.25
2022-10-28T23:19:43.014Z,101489.50
2022-10-28T23:22:10.793Z,101492.91
2022-10-28T23:24:38.499Z,101501.69
2022-10-28T23:27:07.743Z,101506.06
2022-10-28T23:29:36.252Z,101502.78
2022-10-28T23:32:04.655Z,101511.88
2022-10-28T23:34:32.417Z,101499.94
2022-10-28T23:37:00.117Z,101509.53
2022-10-28T23:39:28.119Z,101506.66
2022-10-28T23:41:55.841Z,101497.88
2022-10-28T23:44:24.902Z,101503.03
2022-10-28T23:46:52.833Z,101505.56
2022-10-28T23:49:20.751Z,101500.34
2022-10-28T23:51:48.501Z,101508.28
2022-10-28T23:54:16.221Z,101505.88
2022-10-28T23:56:43.925Z,101504.13
2022-10-28T23:59:11.607Z,101491.75
